Time;durP1;ratioP1;P1;durP2;ratioP2;P2;SDS_P1;SDS_P2;PMS_P1;PMS_P2;Temp;Humidity;BMP_temperature;BMP_pressure;BME280_temperature;BME280_humidity;BME280_pressure;Samples;Min_cycle;Max_cycle;Signal;HPM_P1;HPM_P2
2021/04/05 04:15:31;;;;;;;;;;;;;;;0.72;79.02;98370.09;6029266;23;20934;31
2021/04/05 04:17:58;;;;;;;;;;;;;;;0.63;78.85;98362.34;4873830;29;20312;-67
2021/04/05 04:20:25;;;;;;;;;;;;;;;0.62;79.29;98342.75;4881048;29;19922;-67
2021/04/05 04:22:50;;;;;;;;;;;;;;;0.50;79.45;98347.69;4880974;29;20393;-67
2021/04/05 04:25:15;;;;;;;;;;;;;;;0.56;79.18;98347.75;4882050;29;19995;-66
2021/04/05 04:27:45;;;;;;;;;;;;;;;0.65;79.07;98342.81;4899669;29;19911;-66
2021/04/05 04:30:15;;;;;;;;;;;;;;;0.69;79.22;98341.16;4932027;23;19966;-67
2021/04/05 04:32:40;;;;;;;;;;;;;;;0.84;78.75;98330.31;4918017;29;19915;-68
2021/04/05 04:35:08;;;;;;;;;;;;;;;0.76;79.54;98325.94;4918387;29;20435;-68
2021/04/05 04:37:33;;;;;;;;;;;;;;;0.71;78.90;98322.50;4918337;29;19918;-68
2021/04/05 04:39:58;;;;;;;;;;;;;;;0.67;78.84;98315.63;4918282;29;20276;-68
2021/04/05 04:42:24;;;;;;;;;;;;;;;0.76;78.71;98318.31;4918068;29;20368;-68
2021/04/05 04:44:49;;;;;;;;;;;;;;;0.77;78.96;98321.72;4923025;29;19914;-68
2021/04/05 04:47:14;;;;;;;;;;;;;;;0.75;78.46;98310.66;4929297;29;19973;-67
2021/04/05 04:49:40;;;;;;;;;;;;;;;0.80;78.66;98306.47;4937126;29;19910;-67
2021/04/05 04:52:05;;;;;;;;;;;;;;;0.88;79.06;98304.88;4936850;29;19985;-67
2021/04/05 04:54:30;;;;;;;;;;;;;;;0.81;78.44;98302.22;4937094;29;20016;-67
2021/04/05 04:56:56;;;;;;;;;;;;;;;0.65;78.82;98307.13;4936881;29;19946;-67
2021/04/05 04:59:22;;;;;;;;;;;;;;;0.77;79.15;98312.41;4936914;29;20443;-67
2021/04/05 05:01:47;;;;;;;;;;;;;;;0.82;78.96;98304.78;4936727;29;19958;-67
2021/04/05 05:04:18;;;;;;;;;;;;;;;0.85;78.24;98293.78;4936864;29;19919;-67
2021/04/05 05:06:43;;;;;;;;;;;;;;;0.92;77.89;98291.34;4936785;29;19918;-67
2021/04/05 05:09:09;;;;;;;;;;;;;;;1.00;77.39;98291.41;4936946;29;19910;-67
2021/04/05 05:11:35;;;;;;;;;;;;;;;0.85;77.81;98279.31;4936313;29;19925;-67
2021/04/05 05:14:00;;;;;;;;;;;;;;;0.88;77.76;98264.06;4933772;29;19918;-67
2021/04/05 05:16:26;;;;;;;;;;;;;;;0.82;77.72;98252.94;4927187;29;19911;-67
2021/04/05 05:18:53;;;;;;;;;;;;;;;1.20;77.78;98251.66;4936529;29;19910;-67
2021/04/05 05:21:21;;;;;;;;;;;;;;;1.18;77.49;98257.59;4936343;29;19911;-68
2021/04/05 05:23:46;;;;;;;;;;;;;;;1.37;78.34;98249.31;4936476;29;19911;-68
2021/04/05 05:26:13;;;;;;;;;;;;;;;1.49;77.49;98246.00;4936410;29;19911;-68
2021/04/05 05:28:38;;;;;;;;;;;;;;;1.70;77.85;98243.66;4936356;29;19918;-68
2021/04/05 05:31:04;;;;;;;;;;;;;;;1.87;77.19;98240.38;4936037;29;19930;-69
2021/04/05 05:33:29;;;;;;;;;;;;;;;2.30;75.51;98234.72;4936170;29;19917;-68
2021/04/05 05:35:55;;;;;;;;;;;;;;;2.49;76.37;98234.81;4936311;29;19911;-68
2021/04/05 05:38:24;;;;;;;;;;;;;;;2.65;74.37;98218.69;4936185;29;19910;-68
2021/04/05 05:40:51;;;;;;;;;;;;;;;2.89;73.90;98206.84;4935579;29;19911;-68
2021/04/05 05:43:26;;;;;;;;;;;;;;;3.00;73.35;98210.31;4935925;29;19910;-68
2021/04/05 05:45:55;;;;;;;;;;;;;;;3.21;73.39;98215.47;4926428;29;19992;-68
2021/04/05 05:48:20;;;;;;;;;;;;;;;3.38;73.29;98209.50;4933621;29;19953;-68
2021/04/05 05:50:45;;;;;;;;;;;;;;;3.45;72.10;98204.41;4935939;29;19962;-68
2021/04/05 05:53:13;;;;;;;;;;;;;;;3.50;72.80;98209.53;4935759;29;20332;-69
2021/04/05 05:55:41;;;;;;;;;;;;;;;3.64;71.31;98205.28;4935960;29;19998;-68
2021/04/05 05:58:20;;;;;;;;;;;;;;;4.07;69.87;98200.13;4935788;29;20399;-68
2021/04/05 06:00:50;;;;;;;;;;;;;;;4.26;69.47;98191.56;4935824;29;19917;-69
2021/04/05 06:03:27;;;;;;;;;;;;;;;4.50;69.35;98184.66;4935601;29;20372;-68
2021/04/05 06:06:02;;;;;;;;;;;;;;;4.47;68.07;98179.53;4935947;29;19911;-68
2021/04/05 06:08:43;;;;;;;;;;;;;;;4.62;66.85;98189.72;4935766;29;20013;-68
2021/04/05 06:11:15;;;;;;;;;;;;;;;5.19;63.38;98176.63;4935441;29;19921;-69
2021/04/05 06:13:55;;;;;;;;;;;;;;;5.51;64.15;98184.06;4934064;29;19917;-69
2021/04/05 06:16:21;;;;;;;;;;;;;;;5.44;65.16;98182.44;4925395;29;19918;-68
2021/04/05 06:19:02;;;;;;;;;;;;;;;5.80;62.64;98178.69;4935532;29;20378;-69
2021/04/05 06:21:46;;;;;;;;;;;;;;;5.95;63.48;98182.88;4935375;29;19957;-69
2021/04/05 06:24:15;;;;;;;;;;;;;;;6.22;62.84;98169.78;4935488;29;20379;-69
2021/04/05 06:26:54;;;;;;;;;;;;;;;6.51;61.22;98161.72;4935474;29;19914;-69
2021/04/05 06:29:26;;;;;;;;;;;;;;;6.86;59.70;98156.13;4935255;29;19911;-69
2021/04/05 06:31:51;;;;;;;;;;;;;;;7.28;56.66;98146.09;4935265;29;19943;-69
2021/04/05 06:34:25;;;;;;;;;;;;;;;7.66;54.68;98139.50;4935400;29;19910;-69
2021/04/05 06:37:00;;;;;;;;;;;;;;;7.83;54.38;98136.63;4935328;29;19910;-68
2021/04/05 06:39:26;;;;;;;;;;;;;;;7.43;54.70;98142.44;4935410;29;19911;-68
2021/04/05 06:41:57;;;;;;;;;;;;;;;7.43;55.62;98140.72;4935188;29;19911;-68
2021/04/05 06:44:29;;;;;;;;;;;;;;;7.44;54.93;98144.97;4930723;29;20258;-68
2021/04/05 06:46:54;;;;;;;;;;;;;;;7.53;57.59;98136.25;4927289;29;19921;-68
2021/04/05 06:49:27;;;;;;;;;;;;;;;7.62;55.52;98125.81;4935151;29;19911;-68
2021/04/05 06:52:03;;;;;;;;;;;;;;;7.42;56.19;98122.69;4935456;29;19915;-68
2021/04/05 06:54:34;;;;;;;;;;;;;;;7.51;56.92;98121.72;4939228;29;19911;-68
2021/04/05 06:57:12;;;;;;;;;;;;;;;7.58;55.88;98110.41;4939090;29;19911;-68
2021/04/05 06:59:56;;;;;;;;;;;;;;;7.76;54.93;98112.69;4939037;29;19933;-68
2021/04/05 07:02:40;;;;;;;;;;;;;;;7.76;54.02;98112.69;4939205;29;19911;-68
2021/04/05 07:05:23;;;;;;;;;;;;;;;7.80;53.71;98119.50;4938966;29;19950;-68
2021/04/05 07:07:56;;;;;;;;;;;;;;;7.83;53.75;98114.28;4939060;29;19917;-68
2021/04/05 07:10:24;;;;;;;;;;;;;;;7.96;52.77;98115.75;4938617;29;20336;-68
2021/04/05 07:12:50;;;;;;;;;;;;;;;8.06;52.28;98107.84;4938796;29;19911;-68
2021/04/05 07:15:21;;;;;;;;;;;;;;;8.17;52.34;98103.31;4933920;29;20017;-68
2021/04/05 07:17:55;;;;;;;;;;;;;;;8.38;52.40;98097.78;4931828;29;20391;-68
2021/04/05 07:20:36;;;;;;;;;;;;;;;8.40;51.76;98096.00;4938650;29;19966;-68
2021/04/05 07:23:20;;;;;;;;;;;;;;;8.19;51.79;98102.41;4938586;29;19919;-68
2021/04/05 07:25:59;;;;;;;;;;;;;;;8.38;52.01;98100.38;4938692;29;20431;-68
2021/04/05 07:28:28;;;;;;;;;;;;;;;8.48;50.90;98103.59;4938776;29;19921;-68
2021/04/05 07:30:58;;;;;;;;;;;;;;;8.62;50.55;98103.31;4938354;29;19925;-68
2021/04/05 07:33:31;;;;;;;;;;;;;;;8.69;50.47;98104.88;4938296;29;20363;-69
2021/04/05 07:36:12;;;;;;;;;;;;;;;8.88;49.60;98101.00;4938704;29;19926;-68
2021/04/05 07:38:56;;;;;;;;;;;;;;;9.33;48.30;98089.66;4938352;29;19910;-68
2021/04/05 07:41:36;;;;;;;;;;;;;;;9.80;47.51;98080.69;4938191;29;19955;-68
2021/04/05 07:44:12;;;;;;;;;;;;;;;9.68;47.36;98081.03;4935123;29;19911;-70
2021/04/05 07:46:46;;;;;;;;;;;;;;;9.89;46.93;98077.88;4929187;29;19918;-71
2021/04/05 07:49:21;;;;;;;;;;;;;;;11.13;44.96;98073.47;4937897;29;20269;-69
2021/04/05 07:51:50;;;;;;;;;;;;;;;12.74;41.32;98068.75;4937953;29;19915;-68
2021/04/05 07:54:17;;;;;;;;;;;;;;;13.87;38.31;98062.41;4937869;29;19997;-72
2021/04/05 07:56:52;;;;;;;;;;;;;;;13.87;38.49;98062.41;4938311;29;19982;-68
2021/04/05 07:59:32;;;;;;;;;;;;;;;13.54;37.95;98069.91;4883535;28;20021;-72
2021/04/05 08:03:26;;;;;;;5.63;3.20;;;;;;;13.36;37.97;98060.25;4992964;27;20359;-67
2021/04/05 08:06:04;;;;;;;6.97;3.90;;;;;;;12.65;39.60;98056.94;5062408;27;20047;-68
2021/04/05 08:08:55;;;;;;;10.90;5.35;;;;;;;13.36;39.43;98055.06;5108199;27;20077;-68
2021/04/05 08:11:42;;;;;;;17.23;8.35;;;;;;;13.40;39.58;98051.41;5109335;28;20063;-68
2021/04/05 08:14:15;;;;;;;7.30;3.67;;;;;;;14.94;36.04;98045.50;5055797;27;20032;-68
2021/04/05 08:17:01;;;;;;;10.75;4.28;;;;;;;14.25;36.16;98040.81;5109944;28;20062;-68
2021/04/05 08:19:56;;;;;;;10.15;4.05;;;;;;;14.06;37.20;98044.25;5109692;28;20027;-68
2021/04/05 08:22:38;;;;;;;11.52;4.22;;;;;;;14.46;37.38;98045.09;5109463;28;20032;-68
2021/04/05 08:25:32;;;;;;;8.75;3.65;;;;;;;16.72;32.91;98029.50;5109474;28;20023;-67
2021/04/05 08:28:17;;;;;;;10.80;3.83;;;;;;;17.27;31.39;98023.81;5109744;28;20139;-68
2021/04/05 08:30:55;;;;;;;7.10;4.10;;;;;;;17.49;31.26;98024.22;5057680;27;20418;-68
2021/04/05 08:33:36;;;;;;;9.07;4.05;;;;;;;17.98;30.85;98016.13;5109173;28;20034;-66
2021/04/05 08:36:17;;;;;;;9.23;4.18;;;;;;;17.39;30.85;98023.06;5109405;28;20392;-68
2021/04/05 08:39:04;;;;;;;8.23;3.80;;;;;;;16.53;32.08;98012.16;5109173;28;20472;-69
2021/04/05 08:42:12;;;;;;;10.50;4.32;;;;;;;16.37;33.02;98011.31;5105866;28;20020;-67
2021/04/05 08:44:58;;;;;;;19.05;8.07;;;;;;;15.68;34.72;98015.75;5100864;28;20036;-70
2021/04/05 08:47:28;;;;;;;14.90;6.25;;;;;;;14.86;36.16;98007.59;5120844;27;20034;-70
2021/04/05 08:50:00;;;;;;;18.00;8.65;;;;;;;13.97;37.40;98010.78;5129463;27;20026;-72
2021/04/05 08:52:31;;;;;;;12.45;4.80;;;;;;;15.21;35.46;98002.44;5129214;27;20460;-70
2021/04/05 08:55:00;;;;;;;11.48;4.63;;;;;;;15.92;35.40;97997.13;5129374;27;20428;-69
2021/04/05 08:57:33;;;;;;;15.55;4.75;;;;;;;16.73;32.90;98002.41;5129324;27;20092;-68
2021/04/05 09:00:05;;;;;;;10.20;3.83;;;;;;;17.27;32.34;98003.69;5129150;27;20027;-68
2021/04/05 09:02:36;;;;;;;17.90;8.32;;;;;;;16.37;34.30;97991.22;5129097;27;20035;-67
2021/04/05 09:05:07;;;;;;;26.65;10.52;;;;;;;15.87;34.93;97983.47;5076916;27;20031;-67
2021/04/05 09:07:56;;;;;;;14.02;7.30;;;;;;;16.01;34.39;97983.59;5129014;27;20547;-67
2021/04/05 09:10:29;;;;;;;15.13;6.40;;;;;;;14.77;36.27;97981.94;5128798;28;20035;-67
2021/04/05 09:12:58;;;;;;;20.75;9.38;;;;;;;14.85;36.52;97979.00;5080789;28;20389;-68
2021/04/05 09:15:26;;;;;;;21.10;10.03;;;;;;;14.41;38.37;97976.69;5072664;28;20032;-67
2021/04/05 09:18:00;;;;;;;20.55;8.25;;;;;;;14.34;37.60;97972.66;5070711;28;20056;-68
2021/04/05 09:20:44;;;;;;;18.35;7.93;;;;;;;13.88;39.46;97959.13;5073414;28;20021;-68
2021/04/05 09:23:44;;;;;;;21.42;7.35;;;;;;;14.07;38.35;97957.38;5073056;28;20097;-67
2021/04/05 09:26:37;;;;;;;15.45;5.63;;;;;;;14.13;38.62;97951.88;5073114;28;20111;-67
2021/04/05 09:29:09;;;;;;;8.85;4.43;;;;;;;14.68;37.93;97950.25;5071386;28;20412;-67
2021/04/05 09:31:51;;;;;;;9.27;3.67;;;;;;;14.27;35.49;97940.00;5073111;28;20028;-67
2021/04/05 09:34:58;;;;;;;9.35;3.03;;;;;;;13.93;33.60;97936.31;5073113;28;20039;-67
2021/04/05 09:38:02;;;;;;;9.32;2.58;;;;;;;13.32;33.28;97939.00;5072927;28;20063;-68
2021/04/05 09:40:49;;;;;;;7.88;3.00;;;;;;;13.73;33.86;97938.94;5050933;28;20044;-67
2021/04/05 09:43:48;;;;;;;6.15;2.83;;;;;;;13.79;34.07;97936.09;5072779;28;20029;-68
2021/04/05 09:46:29;;;;;;;11.80;2.90;;;;;;;13.77;33.90;97936.13;5071441;28;20406;-68
2021/04/05 09:49:16;;;;;;;9.48;2.72;;;;;;;14.00;33.73;97927.31;5064097;28;20037;-67
2021/04/05 09:52:07;;;;;;;14.05;4.70;;;;;;;14.56;32.79;97908.22;5063500;28;20035;-67
2021/04/05 09:54:39;;;;;;;9.93;3.08;;;;;;;13.96;33.21;97915.34;5063503;28;20073;-67
2021/04/05 09:57:09;;;;;;;8.55;3.08;;;;;;;13.41;34.70;97923.00;5064026;28;20032;-67
2021/04/05 09:59:52;;;;;;;10.90;2.90;;;;;;;13.24;34.12;97909.84;5058383;28;20404;-67
2021/04/05 10:02:31;;;;;;;10.57;3.33;;;;;;;13.00;34.48;97912.53;5055790;28;20508;-67
2021/04/05 10:04:58;;;;;;;12.15;3.00;;;;;;;13.22;34.36;97903.88;5057637;28;20024;-67
2021/04/05 10:07:24;;;;;;;5.82;2.78;;;;;;;13.25;34.79;97906.38;5057858;28;20028;-67
2021/04/05 10:09:52;;;;;;;8.18;2.97;;;;;;;13.59;34.25;97896.16;5056859;28;20062;-67
2021/04/05 10:12:20;;;;;;;5.60;2.88;;;;;;;13.33;33.78;97899.06;5058913;28;20029;-67
2021/04/05 10:14:46;;;;;;;7.03;3.25;;;;;;;13.35;34.24;97892.03;5059018;28;20024;-68
2021/04/05 10:17:13;;;;;;;11.27;2.95;;;;;;;13.13;33.47;97898.13;5062332;28;20028;-67
2021/04/05 10:19:40;;;;;;;10.38;3.17;;;;;;;12.97;33.52;97886.69;5067313;28;20039;-67
2021/04/05 10:22:18;;;;;;;10.75;2.67;;;;;;;12.85;33.82;97893.22;5066817;28;20024;-67
2021/04/05 10:24:46;;;;;;;10.15;2.78;;;;;;;12.82;33.69;97897.72;5066420;28;20179;-67
2021/04/05 10:27:18;;;;;;;10.32;3.00;;;;;;;13.05;33.48;97884.63;5067036;28;20073;-67
2021/04/05 10:29:46;;;;;;;6.68;2.80;;;;;;;13.31;32.49;97880.06;5071155;28;20029;-66
2021/04/05 10:32:15;;;;;;;13.90;3.15;;;;;;;13.19;32.42;97877.97;5070838;28;20021;-67
2021/04/05 10:34:44;;;;;;;6.22;2.40;;;;;;;13.77;31.75;97878.03;5072277;28;20722;-67
2021/04/05 10:37:24;;;;;;;18.70;7.53;;;;;;;13.72;32.29;97874.78;5058531;22;20421;-67
2021/04/05 10:39:51;;;;;;;8.77;3.90;;;;;;;13.55;31.82;97868.59;5023550;28;20041;-67
2021/04/05 10:42:27;;;;;;;6.70;2.50;;;;;;;13.81;30.77;97874.38;5022933;28;20024;-67
2021/04/05 10:45:01;;;;;;;11.48;2.72;;;;;;;14.02;31.10;97873.41;5022707;28;20037;-67
2021/04/05 10:47:32;;;;;;;14.98;2.90;;;;;;;13.98;30.82;97866.63;5035404;28;20025;-67
2021/04/05 10:49:59;;;;;;;7.05;2.78;;;;;;;13.92;31.52;97872.09;5042997;28;20370;-67
2021/04/05 10:52:28;;;;;;;6.90;2.40;;;;;;;13.69;30.48;97859.31;5042811;28;20549;-67
2021/04/05 10:54:55;;;;;;;7.85;3.15;;;;;;;13.77;31.35;97851.97;5042872;28;20554;-67
2021/04/05 10:57:28;;;;;;;9.63;2.75;;;;;;;13.50;31.26;97857.53;4985704;28;20047;-67
2021/04/05 11:00:00;;;;;;;15.05;4.97;;;;;;;13.51;30.96;97851.41;5043015;28;20037;-67
2021/04/05 11:02:41;;;;;;;7.38;2.58;;;;;;;13.29;31.33;97851.50;5042487;28;20473;-67
2021/04/05 11:05:11;;;;;;;15.43;2.75;;;;;;;13.36;31.03;97841.69;5042813;28;20444;-67
2021/04/05 11:07:38;;;;;;;7.38;2.58;;;;;;;13.67;32.02;97835.94;5042636;28;20063;-67
2021/04/05 11:10:06;;;;;;;8.88;2.97;;;;;;;13.55;30.63;97837.34;5042556;28;20114;-69
2021/04/05 11:12:35;;;;;;;6.70;2.97;;;;;;;13.28;32.30;97841.16;5042304;28;20025;-69
2021/04/05 11:15:03;;;;;;;7.60;2.63;;;;;;;13.57;31.55;97835.50;5042558;28;20025;-67
2021/04/05 11:17:31;;;;;;;8.80;2.95;;;;;;;13.30;31.07;97836.75;5042391;28;20282;-67
2021/04/05 11:19:57;;;;;;;9.02;3.03;;;;;;;13.30;32.09;97839.38;5042351;28;20116;-67
2021/04/05 11:22:25;;;;;;;6.40;3.03;;;;;;;13.43;31.80;97830.09;5042187;28;20025;-67
2021/04/05 11:24:59;;;;;;;9.27;2.80;;;;;;;13.48;30.88;97825.50;5042276;28;20031;-67
2021/04/05 11:27:27;;;;;;;9.38;2.75;;;;;;;13.31;33.17;97822.84;5042285;28;20032;-67
2021/04/05 11:29:57;;;;;;;8.35;2.72;;;;;;;13.13;33.11;97822.69;5042360;28;20402;-67
2021/04/05 11:32:24;;;;;;;13.45;4.05;;;;;;;12.71;36.51;97829.72;5042096;28;20021;-67
2021/04/05 11:34:55;;;;;;;10.18;3.95;;;;;;;12.46;37.90;97816.91;5042242;28;20959;-67
2021/04/05 11:37:26;;;;;;;10.77;4.43;;;;;;;12.31;38.65;97826.16;5041888;28;20043;-67
2021/04/05 11:40:02;;;;;;;11.55;5.25;;;;;;;12.30;40.53;97817.53;5042228;28;20079;-67
2021/04/05 11:42:36;;;;;;;17.08;6.53;;;;;;;12.21;41.45;97822.25;5041880;28;20021;-67
2021/04/05 11:45:02;;;;;;;16.50;5.25;;;;;;;12.37;41.34;97823.31;5041745;28;20112;-67
2021/04/05 11:47:35;;;;;;;17.02;6.20;;;;;;;12.19;42.27;97811.94;5042112;28;20116;-67
2021/04/05 11:50:10;;;;;;;22.58;7.97;;;;;;;12.26;42.28;97809.94;5042073;28;20036;-67
2021/04/05 11:52:51;;;;;;;16.65;5.95;;;;;;;12.38;42.26;97814.63;5042000;28;20094;-67
2021/04/05 11:55:46;;;;;;;21.40;6.85;;;;;;;11.78;42.39;97818.69;5041915;28;20499;-67
2021/04/05 11:58:21;;;;;;;26.80;6.72;;;;;;;11.91;41.66;97817.38;5023917;28;20044;-67
2021/04/05 12:00:56;;;;;;;18.33;6.28;;;;;;;12.02;41.11;97811.75;5042065;28;20085;-67
2021/04/05 12:03:27;;;;;;;19.58;6.28;;;;;;;11.84;42.26;97818.50;5041796;28;20032;-67
2021/04/05 12:05:55;;;;;;;19.60;6.38;;;;;;;11.71;42.49;97819.84;5041995;28;20032;-67
2021/04/05 12:08:26;;;;;;;18.13;6.75;;;;;;;12.09;42.41;97823.59;5041678;28;20633;-67
2021/04/05 12:11:00;;;;;;;20.13;7.35;;;;;;;11.54;42.87;97826.50;5041870;28;20103;-67
2021/04/05 12:13:49;;;;;;;16.67;5.97;;;;;;;11.83;42.54;97822.00;5041748;28;20033;-67
2021/04/05 12:16:22;;;;;;;18.90;6.80;;;;;;;11.61;43.08;97815.91;5041667;28;20037;-67
2021/04/05 12:18:51;;;;;;;14.68;6.03;;;;;;;11.48;43.60;97813.75;5041669;28;20775;-67
2021/04/05 12:21:17;;;;;;;15.10;6.47;;;;;;;11.84;43.45;97813.28;5041749;28;20033;-67
2021/04/05 12:23:43;;;;;;;17.08;8.05;;;;;;;11.59;44.41;97827.16;5041686;28;20552;-66
2021/04/05 12:26:10;;;;;;;19.25;7.60;;;;;;;11.32;45.60;97823.88;5041399;28;20032;-66
2021/04/05 12:28:38;;;;;;;24.95;8.52;;;;;;;11.17;46.33;97815.78;5041649;28;21466;-66
2021/04/05 12:31:05;;;;;;;17.00;8.13;;;;;;;10.93;47.75;97802.81;5041649;28;20028;-66
2021/04/05 12:33:35;;;;;;;26.17;10.57;;;;;;;10.67;49.13;97815.78;5041592;28;20037;-66
2021/04/05 12:36:02;;;;;;;23.80;9.52;;;;;;;10.54;49.80;97813.63;5041780;28;20663;-66
2021/04/05 12:38:39;;;;;;;23.20;9.13;;;;;;;10.78;49.67;97813.69;5041778;28;20101;-66
2021/04/05 12:41:07;;;;;;;28.85;9.48;;;;;;;10.92;49.60;97811.47;5041161;28;20140;-66
2021/04/05 12:43:36;;;;;;;22.45;9.38;;;;;;;10.99;50.31;97812.94;5041264;28;20037;-66
2021/04/05 12:46:05;;;;;;;19.73;9.18;;;;;;;10.78;49.79;97813.69;5041497;28;20033;-68
2021/04/05 12:48:33;;;;;;;20.70;9.80;;;;;;;10.89;49.88;97805.56;5043179;28;20059;-68
2021/04/05 12:51:03;;;;;;;22.85;8.27;;;;;;;10.60;49.86;97809.16;5045364;28;20704;-69
2021/04/05 12:53:30;;;;;;;27.10;9.88;;;;;;;10.47;50.15;97804.34;5045039;28;20033;-66
2021/04/05 12:55:57;;;;;;;25.55;9.50;;;;;;;10.48;50.57;97819.00;5045280;28;20179;-66
2021/04/05 12:58:28;;;;;;;27.17;10.30;;;;;;;10.33;50.85;97814.31;5044861;28;20067;-66
2021/04/05 13:00:54;;;;;;;20.92;10.52;;;;;;;10.47;51.01;97812.13;5044916;28;20025;-68
2021/04/05 13:03:49;;;;;;;23.38;11.35;;;;;;;10.41;50.79;97807.16;5044964;28;20094;-68
2021/04/05 13:06:21;;;;;;;20.52;9.35;;;;;;;10.38;50.83;97799.47;5044736;28;20025;-68
2021/04/05 13:09:06;;;;;;;25.40;10.68;;;;;;;10.70;50.71;97794.97;5044748;28;20056;-68
2021/04/05 13:11:37;;;;;;;21.52;9.35;;;;;;;10.74;50.19;97799.16;5044854;28;20692;-68
2021/04/05 13:14:13;;;;;;;35.30;9.80;;;;;;;10.55;50.62;97792.00;5044172;28;20116;-70
2021/04/05 13:16:57;;;;;;;20.55;10.52;;;;;;;10.69;50.09;97794.13;5045157;28;20120;-65
2021/04/05 13:19:33;;;;;;;23.15;9.25;;;;;;;10.74;49.99;97801.75;5044785;28;20036;-72
2021/04/05 13:22:00;;;;;;;23.45;10.40;;;;;;;10.65;49.77;97802.06;5044675;28;20025;-66
2021/04/05 13:24:31;;;;;;;26.17;10.38;;;;;;;10.68;49.62;97796.75;5044648;28;20025;-68
2021/04/05 13:27:01;;;;;;;21.90;8.70;;;;;;;10.70;49.61;97797.56;5044679;28;20511;-69
2021/04/05 13:29:32;;;;;;;27.50;9.48;;;;;;;10.51;49.82;97800.78;5044427;28;20068;-69
2021/04/05 13:32:01;;;;;;;28.38;9.80;;;;;;;10.48;49.04;97803.47;5044523;28;20098;-69
2021/04/05 13:34:34;;;;;;;21.65;10.18;;;;;;;10.49;48.97;97797.41;5044363;28;20115;-69
2021/04/05 13:37:06;;;;;;;29.92;10.43;;;;;;;10.34;49.18;97781.50;5044297;28;21428;-69
2021/04/05 13:39:32;;;;;;;23.92;9.35;;;;;;;10.43;49.20;97792.41;5044386;28;20037;-68
2021/04/05 13:42:19;;;;;;;24.48;9.52;;;;;;;10.34;49.32;97782.34;5043846;28;20021;-69
2021/04/05 13:44:47;;;;;;;20.02;9.27;;;;;;;10.22;49.27;97782.75;5043616;28;20121;-68
2021/04/05 13:47:13;;;;;;;19.05;7.93;;;;;;;10.26;49.01;97784.38;5044174;28;20056;-69
2021/04/05 13:49:45;;;;;;;15.07;8.68;;;;;;;10.10;48.95;97786.53;5044077;28;20513;-69
2021/04/05 13:52:16;;;;;;;24.77;10.20;;;;;;;10.18;49.38;97783.72;5043991;28;20731;-69
2021/04/05 13:54:42;;;;;;;18.92;9.10;;;;;;;10.15;49.54;97781.22;5043946;28;20033;-69
2021/04/05 13:57:11;;;;;;;22.77;8.60;;;;;;;10.08;49.75;97779.75;5043925;28;20029;-69
2021/04/05 13:59:36;;;;;;;17.52;8.75;;;;;;;10.02;48.90;97773.88;5043679;28;20037;-69
2021/04/05 14:02:06;;;;;;;17.88;7.50;;;;;;;10.09;48.85;97771.06;5043760;28;20032;-69
2021/04/05 14:04:42;;;;;;;13.60;8.35;;;;;;;9.97;48.25;97783.53;5043930;28;20029;-69
2021/04/05 14:07:09;;;;;;;20.45;7.82;;;;;;;9.99;47.90;97791.22;5043999;28;20033;-69
2021/04/05 14:09:36;;;;;;;21.98;8.32;;;;;;;9.93;48.06;97787.09;5043735;28;20029;-69
2021/04/05 14:12:04;;;;;;;19.70;7.00;;;;;;;9.93;48.18;97792.28;4995284;28;20079;-68
2021/04/05 14:14:33;;;;;;;25.27;7.47;;;;;;;9.71;48.21;97791.22;5042121;28;20028;-68
2021/04/05 14:17:04;;;;;;;17.77;7.83;;;;;;;9.61;49.06;97795.84;5043570;28;20029;-69
2021/04/05 14:19:43;;;;;;;24.13;6.47;;;;;;;9.49;49.51;97773.78;5042232;28;20028;-68
2021/04/05 14:22:14;;;;;;;15.30;6.18;;;;;;;9.43;51.39;97797.25;5043467;28;20454;-68
2021/04/05 14:24:49;;;;;;;21.15;6.70;;;;;;;9.35;52.85;97806.09;5042212;28;20083;-65
2021/04/05 14:27:25;;;;;;;17.65;7.18;;;;;;;9.23;55.48;97815.91;5043642;28;20448;-65
2021/04/05 14:30:03;;;;;;;14.82;6.80;;;;;;;8.70;60.37;97825.09;5043337;28;20029;-65
2021/04/05 14:32:33;;;;;;;12.30;6.65;;;;;;;8.33;62.59;97825.16;5043205;28;20095;-67
2021/04/05 14:35:04;;;;;;;19.15;7.18;;;;;;;8.04;65.18;97838.75;5043531;28;20036;-67
2021/04/05 14:37:45;;;;;;;13.27;8.35;;;;;;;7.80;69.12;97851.31;5041945;28;20035;-68
2021/04/05 14:40:16;;;;;;;16.50;8.75;;;;;;;7.80;70.39;97851.31;5043153;28;20035;-67
2021/04/05 14:43:21;;;;;;;21.33;8.90;;;;;;;7.38;73.61;97863.34;5042977;28;20115;-68
2021/04/05 14:45:50;;;;;;;15.65;9.35;;;;;;;7.08;75.66;97868.22;5037613;28;20044;-68
2021/04/05 14:48:21;;;;;;;20.55;9.80;;;;;;;6.93;77.68;97882.22;5043019;28;20029;-68
2021/04/05 14:50:52;;;;;;;25.83;11.30;;;;;;;6.68;78.38;97883.53;5042708;28;20477;-67
2021/04/05 14:53:24;;;;;;;23.52;11.10;;;;;;;6.56;80.08;97891.44;5042691;28;20029;-68
2021/04/05 14:55:54;;;;;;;25.98;12.38;;;;;;;6.37;82.41;97885.75;5043043;28;20024;-67
2021/04/05 14:58:21;;;;;;;18.27;10.77;;;;;;;6.26;81.25;97874.78;5042731;28;20082;-67
2021/04/05 15:00:50;;;;;;;29.52;11.43;;;;;;;6.21;81.61;97890.28;5042641;28;20035;-67
2021/04/05 15:03:23;;;;;;;24.27;12.07;;;;;;;6.16;82.23;97887.78;5042544;28;20029;-67
2021/04/05 15:05:51;;;;;;;22.98;11.90;;;;;;;6.20;84.28;97887.75;5042560;28;20029;-67
2021/04/05 15:08:26;;;;;;;18.27;10.68;;;;;;;6.06;83.33;97886.22;5042758;28;20031;-68
2021/04/05 15:10:56;;;;;;;21.35;9.77;;;;;;;5.96;82.85;97888.94;5042243;28;20025;-67
2021/04/05 15:13:23;;;;;;;15.52;9.20;;;;;;;5.74;83.92;97907.19;5042405;28;20029;-67
2021/04/05 15:15:58;;;;;;;7.50;5.00;;;;;;;4.30;83.69;97967.59;5041718;28;20025;-67
2021/04/05 15:18:25;;;;;;;11.13;4.63;;;;;;;3.55;85.47;97969.66;5042788;28;20029;-67
2021/04/05 15:20:52;;;;;;;4.82;2.67;;;;;;;3.05;85.83;97978.31;5041112;28;20169;-67
2021/04/05 15:23:18;;;;;;;3.22;2.40;;;;;;;2.77;86.86;97969.78;5042392;28;20570;-67
2021/04/05 15:25:47;;;;;;;2.50;2.30;;;;;;;2.75;87.24;97985.13;5042227;28;20033;-67
2021/04/05 15:28:14;;;;;;;3.58;2.30;;;;;;;2.48;88.13;98010.69;5042233;28;20032;-67
2021/04/05 15:30:46;;;;;;;1.90;1.80;;;;;;;2.23;87.78;98031.06;5042267;28;20124;-67
2021/04/05 15:33:12;;;;;;;1.80;1.70;;;;;;;2.30;88.53;98050.69;5042230;28;20036;-67
2021/04/05 15:35:44;;;;;;;1.60;1.50;;;;;;;1.97;88.53;98055.66;5042260;28;20510;-67
2021/04/05 15:38:11;;;;;;;3.33;1.70;;;;;;;2.03;88.61;98050.56;5042030;28;20040;-67
2021/04/05 15:40:46;;;;;;;1.83;1.73;;;;;;;1.64;88.06;98069.97;5041877;28;20112;-67
2021/04/05 15:43:14;;;;;;;1.40;1.30;;;;;;;1.84;89.39;98061.56;5041896;28;20490;-67
2021/04/05 15:46:06;;;;;;;2.40;1.80;;;;;;;2.00;89.61;98068.47;5041712;28;20028;-67
2021/04/05 15:48:41;;;;;;;2.67;1.83;;;;;;;2.13;89.90;98075.34;5030541;28;20124;-67
2021/04/05 15:51:20;;;;;;;6.22;3.70;;;;;;;2.06;88.36;98088.91;5041910;28;20025;-67
2021/04/05 15:53:48;;;;;;;2.83;2.63;;;;;;;1.92;87.70;98090.56;5042153;28;20063;-67
2021/04/05 15:56:22;;;;;;;2.30;2.13;;;;;;;2.14;89.23;98089.81;5041801;28;20033;-67
2021/04/05 15:58:54;;;;;;;5.10;1.88;;;;;;;2.18;87.64;98096.66;5041856;28;20029;-67
2021/04/05 16:01:31;;;;;;;1.95;1.85;;;;;;;2.11;88.19;98087.25;5041668;28;20029;-67
2021/04/05 16:04:16;;;;;;;2.17;2.00;;;;;;;2.55;89.84;98102.72;5042019;28;20127;-67
2021/04/05 16:06:50;;;;;;;1.52;1.40;;;;;;;2.42;87.84;98112.91;5042275;28;20366;-67
2021/04/05 16:09:19;;;;;;;2.28;1.60;;;;;;;2.36;88.16;98120.56;5041755;28;20104;-67
2021/04/05 16:11:58;;;;;;;3.38;2.70;;;;;;;2.29;88.68;98127.38;5041530;28;20033;-67
2021/04/05 16:14:26;;;;;;;2.33;2.17;;;;;;;2.38;89.29;98132.50;5040904;28;20040;-74
2021/04/05 16:16:56;;;;;;;2.58;2.17;;;;;;;2.22;88.09;98146.91;4992675;28;20164;-68
2021/04/05 16:19:45;;;;;;;3.03;1.90;;;;;;;2.12;87.46;98155.38;5041770;28;20021;-67
2021/04/05 16:22:17;;;;;;;3.50;2.70;;;;;;;2.05;88.66;98167.28;5041327;28;20029;-76
2021/04/05 16:24:44;;;;;;;6.78;4.28;;;;;;;1.93;88.26;98163.78;5045688;28;20029;-71
2021/04/05 16:27:13;;;;;;;3.33;2.65;;;;;;;2.14;88.55;98169.03;4994363;28;20038;-69
2021/04/05 16:29:41;;;;;;;3.38;1.95;;;;;;;2.04;88.35;98177.50;5045689;28;20052;-68
2021/04/05 16:32:10;;;;;;;6.25;4.93;;;;;;;1.69;88.85;98201.09;5045137;28;20032;-68
2021/04/05 16:34:49;;;;;;;3.72;2.60;;;;;;;2.01;88.78;98213.22;5045352;28;20047;-69
2021/04/05 16:37:25;;;;;;;5.28;2.45;;;;;;;1.46;88.57;98217.91;5042575;28;20037;-69